Weather at Karlsruhe Baden-Baden Airport

Public forecast

Using degrees Celsius for public forecast. Weather courtesy of forecast.io.

Current aviation weather report (METAR) for Karlsruhe Baden-Baden Airport

Retrieved 2020/09/29 16:20 UTC (0 seconds ago):

EDSB 291620Z 21006KT 9999 -DZ FEW023 BKN035 13/11 Q1019

Aviation forecast (TAF) for Karlsruhe Baden-Baden Airport

Retrieved 2020/09/29 12:28 UTC (4 hours ago):

TAF EDSB 291100Z 2912/3012 21010KT 9999 FEW010 BKN025 BECMG 2916/2918 20005KT TEMPO 2923/3009 BKN012 BECMG 3004/3006 VRB03KT